Time;durP1;ratioP1;P1;durP2;ratioP2;P2;SDS_P1;SDS_P2;PMS_P1;PMS_P2;Temp;Humidity;BMP_temperature;BMP_pressure;BME280_temperature;BME280_humidity;BME280_pressure;Samples;Min_cycle;Max_cycle;Signal;HPM_P1;HPM_P2
2021/12/06 00:01:14;;;;;;;;;;;;;;;;;;;;;
2021/12/06 00:04:23;;;;;;;7.85;5.47;;;;;;;;;;5003091;28;20096;-86
2021/12/06 00:07:45;;;;;;;;;;;;;;;;;;;;;
2021/12/06 00:18:14;;;;;;;11.50;6.50;;;;;;;;;;4960642;28;20039;-86
2021/12/06 00:31:06;;;;;;;9.60;6.88;;;;;;;;;;4944649;28;20122;-86
2021/12/06 00:40:09;;;;;;;11.38;7.90;;;;;;;;;;4998203;28;20033;-85
2021/12/06 00:42:50;;;;;;;13.40;8.43;;;;;;;;;;5009540;28;20040;-85
2021/12/06 00:45:51;;;;;;;11.67;8.00;;;;;;;;;;5003451;28;20019;-85
2021/12/06 00:55:20;;;;;;;16.92;8.00;;;;;;;;;;4971767;28;20112;-86
2021/12/06 00:58:28;;;;;;;;;;;;;;;;;;;;;
2021/12/06 01:09:34;;;;;;;10.50;7.15;;;;;;;;;;4988077;28;20511;-86
2021/12/06 01:15:51;;;;;;;10.70;7.20;;;;;;;;;;4988637;28;20051;-86
2021/12/06 01:24:59;;;;;;;11.90;7.72;;;;;;;;;;4884743;29;20044;-88
2021/12/06 01:28:00;;;;;;;;;;;;;;;;;;;;;
2021/12/06 01:40:06;;;;;;;14.63;9.30;;;;;;;;;;4995007;28;20117;-87
2021/12/06 01:43:14;;;;;;;15.27;9.95;;;;;;;;;;5005459;28;20507;-86
2021/12/06 01:45:51;;;;;;;;;;;;;;;;;;;;;
2021/12/06 01:49:01;;;;;;;15.65;10.52;;;;;;;;;;4990104;28;20019;-86
2021/12/06 01:52:25;;;;;;;;;;;;;;;;;;;;;
2021/12/06 01:54:56;;;;;;;15.60;9.32;;;;;;;;;;4983305;28;20038;-86
2021/12/06 01:57:23;;;;;;;14.27;8.85;;;;;;;;;;4998494;28;20510;-86
2021/12/06 01:59:58;;;;;;;13.32;8.88;;;;;;;;;;4998255;28;20443;-87
2021/12/06 02:02:28;;;;;;;14.85;9.55;;;;;;;;;;5007408;28;20034;-87
2021/12/06 02:04:59;;;;;;;14.95;9.43;;;;;;;;;;4993154;28;20033;-86
2021/12/06 02:07:34;;;;;;;13.38;9.50;;;;;;;;;;4993249;28;20030;-86
2021/12/06 02:10:00;;;;;;;12.00;8.48;;;;;;;;;;4995992;28;20030;-86
2021/12/06 02:12:30;;;;;;;11.60;8.63;;;;;;;;;;4998281;28;20122;-87
2021/12/06 02:17:36;;;;;;;12.03;9.10;;;;;;;;;;4997798;28;20045;-88
2021/12/06 02:20:08;;;;;;;11.73;9.07;;;;;;;;;;4997550;28;20022;-87
2021/12/06 02:22:53;;;;;;;11.63;8.85;;;;;;;;;;4996318;28;20033;-87
2021/12/06 02:25:41;;;;;;;16.50;7.97;;;;;;;;;;4995789;28;20056;-86
2021/12/06 02:28:16;;;;;;;10.70;8.25;;;;;;;;;;4991548;28;20127;-86
2021/12/06 02:30:47;;;;;;;12.20;8.73;;;;;;;;;;4996021;28;20028;-85
2021/12/06 02:33:16;;;;;;;12.43;9.30;;;;;;;;;;4995931;28;20021;-87
2021/12/06 02:35:42;;;;;;;14.07;9.05;;;;;;;;;;4997163;28;20435;-86
2021/12/06 02:38:08;;;;;;;16.15;8.90;;;;;;;;;;4995723;28;20145;-87
2021/12/06 02:40:36;;;;;;;12.73;8.70;;;;;;;;;;4995636;28;20528;-86
2021/12/06 02:43:05;;;;;;;11.90;8.93;;;;;;;;;;4996767;28;20035;-85
2021/12/06 02:45:33;;;;;;;13.50;9.10;;;;;;;;;;4994852;28;20031;-87
2021/12/06 02:48:10;;;;;;;13.57;9.90;;;;;;;;;;4996718;28;20477;-86
2021/12/06 02:51:04;;;;;;;11.35;8.68;;;;;;;;;;4997034;28;20026;-84
2021/12/06 02:53:45;;;;;;;12.63;8.98;;;;;;;;;;4997282;28;20022;-86
2021/12/06 02:59:12;;;;;;;11.70;8.65;;;;;;;;;;4972403;28;20509;-87
2021/12/06 03:01:42;;;;;;;14.45;10.57;;;;;;;;;;4992186;28;20042;-88
2021/12/06 03:04:11;;;;;;;18.27;11.05;;;;;;;;;;4996662;28;20034;-88
2021/12/06 03:06:40;;;;;;;17.00;11.90;;;;;;;;;;4995256;28;20050;-86
2021/12/06 03:09:18;;;;;;;17.08;11.73;;;;;;;;;;4995605;28;20125;-87
2021/12/06 03:11:43;;;;;;;16.42;10.70;;;;;;;;;;4997012;28;20033;-87
2021/12/06 03:14:38;;;;;;;15.48;10.75;;;;;;;;;;4995341;28;20107;-86
2021/12/06 03:17:05;;;;;;;12.45;10.13;;;;;;;;;;4997131;28;20030;-88
2021/12/06 03:19:31;;;;;;;15.43;11.45;;;;;;;;;;4988886;28;20077;-86
2021/12/06 03:21:57;;;;;;;14.75;10.45;;;;;;;;;;4996957;28;20026;-87
2021/12/06 03:24:36;;;;;;;14.63;10.75;;;;;;;;;;4999783;28;20038;-87
2021/12/06 03:27:11;;;;;;;16.08;11.35;;;;;;;;;;5003631;28;20029;-87
2021/12/06 03:29:45;;;;;;;14.95;10.75;;;;;;;;;;5009998;28;20022;-86
2021/12/06 03:32:19;;;;;;;18.38;11.95;;;;;;;;;;4995380;28;20481;-86
2021/12/06 03:34:51;;;;;;;19.02;12.35;;;;;;;;;;4996279;28;20036;-87
2021/12/06 03:44:49;;;;;;;;;;;;;;;;;;;;;
2021/12/06 03:47:33;;;;;;;18.15;12.02;;;;;;;;;;4982748;28;20031;-88
2021/12/06 04:04:49;;;;;;;21.02;13.30;;;;;;;;;;4957586;28;20031;-87
2021/12/06 04:17:55;;;;;;;25.60;14.07;;;;;;;;;;4934651;29;20043;-87
2021/12/06 04:48:09;;;;;;;35.25;16.80;;;;;;;;;;5004725;23;20034;-87
2021/12/06 04:51:48;;;;;;;27.58;15.57;;;;;;;;;;4956306;28;20047;-86
2021/12/06 05:47:07;;;;;;;29.40;14.93;;;;;;;;;;4978760;28;20062;-88
2021/12/06 05:50:03;;;;;;;35.17;16.67;;;;;;;;;;4989346;28;20045;-86
2021/12/06 05:53:29;;;;;;;34.22;18.13;;;;;;;;;;4985910;28;20102;-89
2021/12/06 05:56:48;;;;;;;32.65;17.77;;;;;;;;;;4936027;28;20095;-89
2021/12/06 05:59:49;;;;;;;36.33;18.70;;;;;;;;;;4980499;28;20114;-87
2021/12/06 06:05:57;;;;;;;30.88;17.17;;;;;;;;;;4977200;28;20117;-85
2021/12/06 06:08:42;;;;;;;;;;;;;;;;;;;;;
2021/12/06 06:11:11;;;;;;;32.20;15.52;;;;;;;;;;4989508;28;20045;-86
2021/12/06 06:13:45;;;;;;;32.92;17.40;;;;;;;;;;4979560;28;20053;-87
2021/12/06 06:24:53;;;;;;;26.70;15.13;;;;;;;;;;5015802;28;20056;-86
2021/12/06 06:33:20;;;;;;;39.85;19.48;;;;;;;;;;4995850;28;20042;-86
2021/12/06 06:36:08;;;;;;;35.63;17.80;;;;;;;;;;4931398;29;20048;-86
2021/12/06 06:48:49;;;;;;;41.75;19.27;;;;;;;;;;4942323;28;20042;-88
2021/12/06 06:51:15;;;;;;;32.47;17.98;;;;;;;;;;4994127;28;20072;-87
2021/12/06 06:53:41;;;;;;;33.05;17.48;;;;;;;;;;4976847;28;20097;-88
2021/12/06 06:56:06;;;;;;;37.00;18.75;;;;;;;;;;4973818;28;20026;-88
2021/12/06 06:58:32;;;;;;;41.63;19.77;;;;;;;;;;4978812;28;20105;-88
2021/12/06 07:00:58;;;;;;;37.50;18.35;;;;;;;;;;4977473;28;20564;-87
2021/12/06 07:03:24;;;;;;;49.10;21.85;;;;;;;;;;4981388;28;20026;-88
2021/12/06 07:05:50;;;;;;;33.85;17.67;;;;;;;;;;4973333;28;20225;-86
2021/12/06 07:08:15;;;;;;;39.67;20.45;;;;;;;;;;4978008;28;20026;-88
2021/12/06 07:10:41;;;;;;;36.10;17.83;;;;;;;;;;4978795;28;20019;-90
2021/12/06 07:13:10;;;;;;;36.25;17.60;;;;;;;;;;4992714;28;20089;-86
2021/12/06 07:15:36;;;;;;;41.33;20.15;;;;;;;;;;4991449;28;20058;-88
2021/12/06 07:18:05;;;;;;;43.63;19.10;;;;;;;;;;4975227;28;20026;-88
2021/12/06 07:20:32;;;;;;;44.67;20.08;;;;;;;;;;4992814;28;20058;-89
2021/12/06 07:22:59;;;;;;;41.60;18.52;;;;;;;;;;4976181;28;20034;-88
2021/12/06 07:25:25;;;;;;;39.58;17.88;;;;;;;;;;4976232;28;20091;-87
2021/12/06 07:27:52;;;;;;;32.50;17.00;;;;;;;;;;4977504;28;20093;-88
2021/12/06 07:30:19;;;;;;;28.73;16.38;;;;;;;;;;4988446;28;20684;-87
2021/12/06 07:32:48;;;;;;;32.00;16.17;;;;;;;;;;4997238;28;20114;-88
2021/12/06 07:35:15;;;;;;;33.17;17.05;;;;;;;;;;4979478;28;20197;-88
2021/12/06 07:37:41;;;;;;;33.92;17.20;;;;;;;;;;4976028;28;20023;-88
2021/12/06 07:40:09;;;;;;;29.92;14.88;;;;;;;;;;4983115;28;20019;-88
2021/12/06 07:42:34;;;;;;;26.77;14.48;;;;;;;;;;4999238;28;20030;-89
2021/12/06 07:45:00;;;;;;;31.75;15.00;;;;;;;;;;5002361;28;20011;-88
2021/12/06 07:47:26;;;;;;;29.40;15.48;;;;;;;;;;5019592;28;20022;-88
2021/12/06 07:49:52;;;;;;;35.40;16.88;;;;;;;;;;5011250;28;20030;-88
2021/12/06 07:52:17;;;;;;;28.15;14.70;;;;;;;;;;5015609;28;20036;-88
2021/12/06 07:54:46;;;;;;;34.33;15.52;;;;;;;;;;4998597;28;20042;-87
2021/12/06 07:57:13;;;;;;;31.80;15.27;;;;;;;;;;5001975;28;20018;-87
2021/12/06 07:59:39;;;;;;;34.30;15.88;;;;;;;;;;5001129;28;20045;-87
2021/12/06 08:02:08;;;;;;;38.90;16.85;;;;;;;;;;5006469;28;20027;-86
2021/12/06 08:04:34;;;;;;;39.22;16.25;;;;;;;;;;5007235;28;20030;-87
2021/12/06 08:07:00;;;;;;;37.35;15.90;;;;;;;;;;5008530;28;20026;-87
2021/12/06 08:09:26;;;;;;;45.13;17.50;;;;;;;;;;5013812;28;20041;-87
2021/12/06 08:11:51;;;;;;;45.80;18.45;;;;;;;;;;5011493;28;20026;-88
2021/12/06 08:14:17;;;;;;;36.03;14.05;;;;;;;;;;5012991;28;20060;-86
2021/12/06 08:16:44;;;;;;;37.67;15.00;;;;;;;;;;5024574;28;20027;-86
2021/12/06 08:19:11;;;;;;;40.63;16.90;;;;;;;;;;5006795;28;20026;-86
2021/12/06 08:21:37;;;;;;;39.20;15.77;;;;;;;;;;4999037;28;20429;-87
2021/12/06 08:24:04;;;;;;;41.70;15.77;;;;;;;;;;4998669;28;20026;-87
2021/12/06 08:26:34;;;;;;;36.25;15.32;;;;;;;;;;4988169;28;20081;-87
2021/12/06 08:29:05;;;;;;;40.88;15.45;;;;;;;;;;4989167;28;20037;-87
2021/12/06 08:31:31;;;;;;;35.03;14.50;;;;;;;;;;4992906;28;20036;-87
2021/12/06 08:33:58;;;;;;;39.20;16.77;;;;;;;;;;4988376;28;20046;-88
2021/12/06 08:36:25;;;;;;;39.58;16.08;;;;;;;;;;4985792;28;20061;-86
2021/12/06 08:38:51;;;;;;;37.95;16.48;;;;;;;;;;4980698;28;20050;-88
2021/12/06 08:41:23;;;;;;;42.97;16.80;;;;;;;;;;4997667;28;20027;-87
2021/12/06 08:43:49;;;;;;;46.83;17.70;;;;;;;;;;5005507;28;20346;-88
2021/12/06 08:46:31;;;;;;;40.67;16.65;;;;;;;;;;5008113;28;20058;-88
2021/12/06 08:48:57;;;;;;;35.22;15.70;;;;;;;;;;4997771;28;20026;-87
2021/12/06 08:51:30;;;;;;;39.63;15.23;;;;;;;;;;4980163;28;20093;-87
2021/12/06 08:53:57;;;;;;;35.38;14.95;;;;;;;;;;4975242;28;20019;-87
2021/12/06 08:56:23;;;;;;;38.60;16.00;;;;;;;;;;4975237;28;20034;-88
2021/12/06 08:58:49;;;;;;;42.97;16.92;;;;;;;;;;4990804;28;20023;-86
2021/12/06 09:01:16;;;;;;;34.72;14.98;;;;;;;;;;4982017;28;20105;-88
2021/12/06 09:03:44;;;;;;;32.30;14.30;;;;;;;;;;4994964;28;20030;-88
2021/12/06 09:06:11;;;;;;;32.90;14.55;;;;;;;;;;4974448;28;20031;-88
2021/12/06 09:08:37;;;;;;;28.90;13.20;;;;;;;;;;4976525;28;20057;-88
2021/12/06 09:11:04;;;;;;;39.22;14.88;;;;;;;;;;4984377;28;20030;-87
2021/12/06 09:13:30;;;;;;;30.80;14.98;;;;;;;;;;4974302;28;20023;-86
2021/12/06 09:15:59;;;;;;;28.52;13.75;;;;;;;;;;4976132;28;20052;-88
2021/12/06 09:18:26;;;;;;;31.80;15.10;;;;;;;;;;4975775;28;20027;-87
2021/12/06 09:20:52;;;;;;;33.20;15.98;;;;;;;;;;4976032;28;20118;-87
2021/12/06 09:23:18;;;;;;;29.33;12.80;;;;;;;;;;4993636;28;20019;-87
2021/12/06 09:25:46;;;;;;;26.10;12.98;;;;;;;;;;4997523;28;20033;-86
2021/12/06 09:28:13;;;;;;;30.75;14.40;;;;;;;;;;5000767;28;20037;-86
2021/12/06 09:30:39;;;;;;;33.20;15.63;;;;;;;;;;4997420;28;20007;-86
2021/12/06 09:33:12;;;;;;;38.42;15.73;;;;;;;;;;4997622;28;20022;-86
2021/12/06 09:35:41;;;;;;;29.70;15.27;;;;;;;;;;4994139;28;20038;-86
2021/12/06 09:38:08;;;;;;;31.08;15.43;;;;;;;;;;4978121;28;20091;-87
2021/12/06 09:40:37;;;;;;;37.95;15.95;;;;;;;;;;4977577;28;20054;-87
2021/12/06 09:43:05;;;;;;;31.45;14.93;;;;;;;;;;4977222;28;20054;-87
2021/12/06 09:45:32;;;;;;;31.30;15.13;;;;;;;;;;4976882;28;20027;-87
2021/12/06 09:47:59;;;;;;;36.28;16.45;;;;;;;;;;4976893;28;20074;-87
2021/12/06 09:50:32;;;;;;;26.67;12.18;;;;;;;;;;4976188;28;20023;-87
2021/12/06 09:52:59;;;;;;;;;;;;;;;;;;4975770;28;20019;-88
2021/12/06 09:55:26;;;;;;;23.23;11.23;;;;;;;;;;4974315;28;19952;-88
2021/12/06 09:57:53;;;;;;;26.02;12.52;;;;;;;;;;4974213;28;20174;-88
2021/12/06 10:00:25;;;;;;;33.70;12.45;;;;;;;;;;4974741;28;20052;-88
2021/12/06 10:02:52;;;;;;;22.38;11.13;;;;;;;;;;4989289;28;20049;-88
2021/12/06 10:05:19;;;;;;;29.08;12.93;;;;;;;;;;4979371;28;20026;-87
2021/12/06 10:07:44;;;;;;;26.90;13.70;;;;;;;;;;4974384;28;20046;-87
2021/12/06 10:10:13;;;;;;;23.58;11.18;;;;;;;;;;4975042;28;20050;-87
2021/12/06 10:12:39;;;;;;;23.00;12.20;;;;;;;;;;4973511;28;20117;-87
2021/12/06 10:15:05;;;;;;;32.65;14.77;;;;;;;;;;4974287;28;20062;-87
2021/12/06 10:17:34;;;;;;;22.42;12.20;;;;;;;;;;4974464;28;20117;-87
2021/12/06 10:19:59;;;;;;;31.23;13.18;;;;;;;;;;4989702;28;20470;-88
2021/12/06 10:22:27;;;;;;;23.75;12.15;;;;;;;;;;4974979;28;20110;-87
2021/12/06 10:24:57;;;;;;;31.15;14.70;;;;;;;;;;4974782;28;20059;-89
2021/12/06 10:27:25;;;;;;;21.13;11.10;;;;;;;;;;4974337;28;20034;-87
2021/12/06 10:30:00;;;;;;;20.85;11.50;;;;;;;;;;4976477;28;20038;-86
2021/12/06 10:32:28;;;;;;;20.38;10.27;;;;;;;;;;4978220;28;20045;-89
2021/12/06 10:35:00;;;;;;;19.27;10.85;;;;;;;;;;4977021;28;20532;-88
2021/12/06 10:37:28;;;;;;;;;;;;;;;;;;4978867;28;20027;-86
2021/12/06 10:39:54;;;;;;;17.77;9.57;;;;;;;;;;4977747;28;19910;-87
2021/12/06 10:42:36;;;;;;;19.05;9.55;;;;;;;;;;4993594;28;20031;-88
2021/12/06 10:45:11;;;;;;;19.35;8.63;;;;;;;;;;4979592;28;20027;-86
2021/12/06 10:47:38;;;;;;;14.25;8.10;;;;;;;;;;4977801;28;20034;-87
2021/12/06 10:50:30;;;;;;;17.70;7.88;;;;;;;;;;4976933;28;20027;-88
2021/12/06 10:52:57;;;;;;;17.13;9.05;;;;;;;;;;4973914;28;20066;-88
2021/12/06 10:55:28;;;;;;;11.70;6.68;;;;;;;;;;4977758;28;20058;-86
2021/12/06 10:57:59;;;;;;;11.75;6.55;;;;;;;;;;4982579;28;20022;-90
2021/12/06 11:00:37;;;;;;;12.33;7.00;;;;;;;;;;4976482;28;20081;-87
2021/12/06 11:03:04;;;;;;;9.75;6.05;;;;;;;;;;4977633;28;20026;-86
2021/12/06 11:05:32;;;;;;;11.23;6.85;;;;;;;;;;4985005;28;20455;-86
2021/12/06 11:08:18;;;;;;;11.43;6.57;;;;;;;;;;4979640;28;20417;-86
2021/12/06 11:10:59;;;;;;;10.13;6.32;;;;;;;;;;4980812;28;20489;-85
2021/12/06 11:13:35;;;;;;;7.93;5.05;;;;;;;;;;4970607;28;20110;-86
2021/12/06 11:16:17;;;;;;;10.85;5.07;;;;;;;;;;4975926;28;20033;-86
2021/12/06 11:18:52;;;;;;;10.13;4.53;;;;;;;;;;4970327;28;20030;-86
2021/12/06 11:21:26;;;;;;;6.60;3.70;;;;;;;;;;4976429;28;20062;-88
2021/12/06 11:24:21;;;;;;;6.40;3.45;;;;;;;;;;4981629;28;20438;-86
2021/12/06 11:26:51;;;;;;;7.25;3.72;;;;;;;;;;4977409;28;20022;-89
2021/12/06 11:29:29;;;;;;;5.65;3.30;;;;;;;;;;4977586;28;20027;-87
2021/12/06 11:32:55;;;;;;;6.15;3.65;;;;;;;;;;4977825;28;20030;-87
2021/12/06 11:35:24;;;;;;;9.32;6.32;;;;;;;;;;4946104;28;20478;-87
2021/12/06 11:37:53;;;;;;;10.35;6.80;;;;;;;;;;4976835;28;20042;-87
2021/12/06 11:40:25;;;;;;;10.90;6.88;;;;;;;;;;4978736;28;20023;-87
2021/12/06 11:43:05;;;;;;;12.37;7.00;;;;;;;;;;4975677;28;20031;-86
2021/12/06 11:45:33;;;;;;;13.90;7.97;;;;;;;;;;4976187;28;20026;-85
2021/12/06 11:48:06;;;;;;;11.32;5.93;;;;;;;;;;4978130;28;20528;-85
2021/12/06 11:50:31;;;;;;;;;;;;;;;;;;4980181;28;20027;-86
2021/12/06 11:53:06;;;;;;;1.83;1.70;;;;;;;;;;4978525;28;19910;-88
2021/12/06 11:55:32;;;;;;;1.70;1.60;;;;;;;;;;4977423;28;20626;-88
2021/12/06 11:57:57;;;;;;;5.55;3.38;;;;;;;;;;4978475;28;20107;-87
2021/12/06 12:00:24;;;;;;;6.60;3.53;;;;;;;;;;4978845;28;20469;-87
2021/12/06 12:02:53;;;;;;;7.43;3.35;;;;;;;;;;4977792;28;20023;-88
2021/12/06 12:05:24;;;;;;;7.57;3.78;;;;;;;;;;4979733;28;20030;-87
2021/12/06 12:08:00;;;;;;;6.87;4.50;;;;;;;;;;4986991;28;20031;-88
2021/12/06 12:10:42;;;;;;;5.75;4.28;;;;;;;;;;4981099;28;20367;-87
2021/12/06 12:13:10;;;;;;;8.80;4.65;;;;;;;;;;4977239;28;20030;-87
2021/12/06 12:15:37;;;;;;;10.95;4.32;;;;;;;;;;4983393;28;20018;-88
2021/12/06 12:18:04;;;;;;;7.97;4.30;;;;;;;;;;4977721;28;20470;-86
2021/12/06 12:20:30;;;;;;;9.10;4.88;;;;;;;;;;4974496;28;20073;-86
2021/12/06 12:23:00;;;;;;;8.23;5.13;;;;;;;;;;4977574;28;20581;-86
2021/12/06 12:25:35;;;;;;;9.10;5.03;;;;;;;;;;4977167;28;20034;-85
2021/12/06 12:28:19;;;;;;;7.85;5.20;;;;;;;;;;4985878;28;20117;-86
2021/12/06 12:30:47;;;;;;;7.72;4.63;;;;;;;;;;4994573;28;20528;-87
2021/12/06 12:33:13;;;;;;;8.18;4.20;;;;;;;;;;4980040;28;20015;-87
2021/12/06 12:35:44;;;;;;;6.60;3.70;;;;;;;;;;4979382;28;20117;-86
2021/12/06 12:38:11;;;;;;;5.72;2.95;;;;;;;;;;4978621;28;20026;-86
2021/12/06 12:40:47;;;;;;;5.43;3.20;;;;;;;;;;4975262;28;20393;-86
2021/12/06 12:43:16;;;;;;;4.55;2.80;;;;;;;;;;4978144;28;20496;-85
2021/12/06 12:45:49;;;;;;;5.03;2.95;;;;;;;;;;4992917;28;20485;-86
2021/12/06 12:48:20;;;;;;;3.13;2.38;;;;;;;;;;4978412;28;20037;-86
2021/12/06 12:51:04;;;;;;;4.25;3.13;;;;;;;;;;4992898;28;20118;-85
2021/12/06 12:53:46;;;;;;;4.28;3.05;;;;;;;;;;4978136;28;20031;-85
2021/12/06 12:56:31;;;;;;;4.40;2.63;;;;;;;;;;4979459;28;20097;-86
2021/12/06 12:58:58;;;;;;;4.60;2.67;;;;;;;;;;4980532;28;20027;-86
2021/12/06 13:01:25;;;;;;;4.32;2.75;;;;;;;;;;4990358;28;20037;-86
2021/12/06 13:04:00;;;;;;;4.43;3.17;;;;;;;;;;4982372;28;20530;-88
2021/12/06 13:06:31;;;;;;;6.22;3.15;;;;;;;;;;4983220;28;20089;-85
2021/12/06 13:09:01;;;;;;;7.60;2.97;;;;;;;;;;4980083;28;20076;-87
2021/12/06 13:11:31;;;;;;;6.85;3.08;;;;;;;;;;4978879;28;20034;-87
2021/12/06 13:13:58;;;;;;;5.97;3.65;;;;;;;;;;4981837;28;20022;-87
2021/12/06 13:17:00;;;;;;;5.97;3.20;;;;;;;;;;4979088;28;20712;-86
2021/12/06 13:19:50;;;;;;;6.18;3.33;;;;;;;;;;4978194;28;20027;-86
2021/12/06 13:22:19;;;;;;;9.63;5.15;;;;;;;;;;4978488;28;20038;-86
2021/12/06 13:24:49;;;;;;;14.63;5.00;;;;;;;;;;4977869;28;20030;-86
2021/12/06 13:27:44;;;;;;;8.10;3.95;;;;;;;;;;4978929;28;20048;-86
2021/12/06 13:30:26;;;;;;;6.68;4.03;;;;;;;;;;4994069;28;20031;-86
2021/12/06 13:32:53;;;;;;;8.10;4.10;;;;;;;;;;4979844;28;20023;-86
2021/12/06 13:35:28;;;;;;;7.35;4.60;;;;;;;;;;4978803;28;20737;-85
2021/12/06 13:38:12;;;;;;;8.80;4.97;;;;;;;;;;4975312;28;20031;-86
2021/12/06 13:40:50;;;;;;;14.23;8.43;;;;;;;;;;4978760;28;20026;-86
2021/12/06 13:43:18;;;;;;;18.50;10.00;;;;;;;;;;4978017;28;20058;-86
2021/12/06 13:45:49;;;;;;;15.73;9.15;;;;;;;;;;4977555;28;20113;-85
2021/12/06 13:48:24;;;;;;;18.27;9.38;;;;;;;;;;4980441;28;20034;-84
2021/12/06 13:50:52;;;;;;;14.50;9.27;;;;;;;;;;4977775;28;20085;-86
2021/12/06 13:53:22;;;;;;;16.40;9.05;;;;;;;;;;4975288;28;20018;-86
2021/12/06 13:55:51;;;;;;;18.10;9.68;;;;;;;;;;4980585;28;20038;-85
2021/12/06 13:58:18;;;;;;;19.70;11.15;;;;;;;;;;4996116;28;20389;-87
2021/12/06 14:00:47;;;;;;;23.45;11.63;;;;;;;;;;4983690;28;20023;-85
2021/12/06 14:03:32;;;;;;;17.88;11.10;;;;;;;;;;4981363;28;20029;-86
2021/12/06 14:05:57;;;;;;;19.83;9.93;;;;;;;;;;4989258;28;20037;-86
2021/12/06 14:08:25;;;;;;;16.83;8.88;;;;;;;;;;4986514;28;20105;-85
2021/12/06 14:10:53;;;;;;;20.77;10.55;;;;;;;;;;4989732;28;20121;-85
2021/12/06 14:13:24;;;;;;;19.23;10.63;;;;;;;;;;4992759;28;20102;-88
2021/12/06 14:15:53;;;;;;;21.95;12.48;;;;;;;;;;4997749;28;20030;-89
2021/12/06 14:18:25;;;;;;;20.73;11.05;;;;;;;;;;4998209;28;20045;-89
2021/12/06 14:21:00;;;;;;;24.48;11.48;;;;;;;;;;5000054;28;20034;-88
2021/12/06 14:23:29;;;;;;;20.92;10.25;;;;;;;;;;4997270;28;20030;-89
2021/12/06 14:26:02;;;;;;;17.52;10.98;;;;;;;;;;4996966;28;20109;-89
2021/12/06 14:28:29;;;;;;;20.30;11.70;;;;;;;;;;4995686;28;20149;-88
2021/12/06 14:30:58;;;;;;;23.52;12.00;;;;;;;;;;5016701;28;20026;-88
2021/12/06 14:33:27;;;;;;;21.90;11.25;;;;;;;;;;5000617;28;20541;-89
2021/12/06 14:35:56;;;;;;;21.45;12.15;;;;;;;;;;4991036;28;20115;-89
2021/12/06 14:38:26;;;;;;;23.48;11.38;;;;;;;;;;5000561;28;20477;-88
2021/12/06 14:40:55;;;;;;;24.40;12.98;;;;;;;;;;5013449;28;20033;-87
2021/12/06 14:43:21;;;;;;;20.33;11.68;;;;;;;;;;5005221;28;20038;-87
2021/12/06 14:45:47;;;;;;;20.95;11.80;;;;;;;;;;4999540;28;20030;-88
2021/12/06 14:48:19;;;;;;;24.38;11.90;;;;;;;;;;5000651;28;20030;-89
2021/12/06 14:53:23;;;;;;;22.67;11.98;;;;;;;;;;5000868;28;20027;-87
2021/12/06 14:55:57;;;;;;;26.00;12.73;;;;;;;;;;4999670;28;20035;-87
2021/12/06 14:58:27;;;;;;;19.80;11.15;;;;;;;;;;5010588;28;20042;-86
2021/12/06 15:01:03;;;;;;;18.50;10.93;;;;;;;;;;5005442;28;20003;-87
2021/12/06 15:03:38;;;;;;;21.30;12.27;;;;;;;;;;4980397;28;20023;-87
2021/12/06 15:06:04;;;;;;;24.98;12.40;;;;;;;;;;4978591;28;20509;-88
2021/12/06 15:08:38;;;;;;;21.02;12.90;;;;;;;;;;4978712;28;20142;-88
2021/12/06 15:11:14;;;;;;;24.63;12.52;;;;;;;;;;4978337;28;20019;-88
2021/12/06 15:13:42;;;;;;;25.58;11.02;;;;;;;;;;4977988;28;20038;-87
2021/12/06 15:16:10;;;;;;;24.75;11.63;;;;;;;;;;4978662;28;20493;-87
2021/12/06 15:18:37;;;;;;;19.05;10.02;;;;;;;;;;4978937;28;20027;-88
2021/12/06 15:21:04;;;;;;;25.40;11.25;;;;;;;;;;4979898;28;20098;-88
2021/12/06 15:23:36;;;;;;;19.33;10.75;;;;;;;;;;4980226;28;20073;-88
2021/12/06 15:26:08;;;;;;;18.17;10.82;;;;;;;;;;4982916;28;20027;-88
2021/12/06 15:28:37;;;;;;;;;;;;;;;;;;4981794;28;20110;-87
2021/12/06 15:31:04;;;;;;;24.60;11.77;;;;;;;;;;4981314;28;19921;-87
2021/12/06 15:33:30;;;;;;;29.20;13.15;;;;;;;;;;4980710;28;20050;-87
2021/12/06 15:35:59;;;;;;;25.27;12.57;;;;;;;;;;4983994;28;20031;-86
2021/12/06 15:38:30;;;;;;;25.80;12.10;;;;;;;;;;4985601;28;20038;-90
2021/12/06 15:41:00;;;;;;;22.48;11.13;;;;;;;;;;4981569;28;20049;-86
2021/12/06 15:43:42;;;;;;;23.00;12.15;;;;;;;;;;4979648;28;20034;-89
2021/12/06 15:46:08;;;;;;;23.13;11.07;;;;;;;;;;4979066;28;20515;-88
2021/12/06 15:48:37;;;;;;;24.85;10.73;;;;;;;;;;4994781;28;20031;-90
2021/12/06 15:51:14;;;;;;;19.10;10.27;;;;;;;;;;4980694;28;20032;-88
2021/12/06 15:53:50;;;;;;;19.48;9.75;;;;;;;;;;4979543;28;20019;-89
2021/12/06 15:56:17;;;;;;;16.88;9.45;;;;;;;;;;4975234;28;20027;-88
2021/12/06 15:58:42;;;;;;;18.58;8.95;;;;;;;;;;4980536;28;20065;-89
2021/12/06 16:01:08;;;;;;;16.23;8.93;;;;;;;;;;4979190;28;20034;-90
2021/12/06 16:03:46;;;;;;;14.25;8.23;;;;;;;;;;4978107;28;20434;-90
2021/12/06 16:06:14;;;;;;;16.90;9.00;;;;;;;;;;4979765;28;20030;-87
2021/12/06 16:08:43;;;;;;;14.90;8.52;;;;;;;;;;4986031;28;20022;-88
2021/12/06 16:11:12;;;;;;;17.55;9.32;;;;;;;;;;4981295;28;20390;-88
2021/12/06 16:13:43;;;;;;;18.80;8.75;;;;;;;;;;4985873;28;20053;-88
2021/12/06 16:16:11;;;;;;;13.00;8.27;;;;;;;;;;4980579;28;20019;-89
2021/12/06 16:18:40;;;;;;;13.25;7.85;;;;;;;;;;4980623;28;20464;-88
2021/12/06 16:21:13;;;;;;;14.32;8.02;;;;;;;;;;4976471;28;20019;-87
2021/12/06 16:23:46;;;;;;;15.25;7.78;;;;;;;;;;4983180;28;20490;-87
2021/12/06 16:26:17;;;;;;;18.27;9.55;;;;;;;;;;4980800;28;20080;-87
2021/12/06 16:28:49;;;;;;;17.88;8.75;;;;;;;;;;4981551;28;20429;-87
2021/12/06 16:31:17;;;;;;;16.27;8.63;;;;;;;;;;4980855;28;20038;-86
2021/12/06 16:33:45;;;;;;;15.77;8.88;;;;;;;;;;4978974;28;20027;-89
2021/12/06 16:36:22;;;;;;;16.85;9.13;;;;;;;;;;4980957;28;20079;-88
2021/12/06 16:38:49;;;;;;;15.73;8.95;;;;;;;;;;4984187;28;20031;-88
2021/12/06 16:41:17;;;;;;;17.85;9.27;;;;;;;;;;4982542;28;20437;-88
2021/12/06 16:43:44;;;;;;;19.80;9.82;;;;;;;;;;4980963;28;20027;-88
2021/12/06 16:46:11;;;;;;;20.67;10.00;;;;;;;;;;4997155;28;20208;-87
2021/12/06 16:48:47;;;;;;;13.80;8.80;;;;;;;;;;4980854;28;20027;-88
2021/12/06 16:51:35;;;;;;;14.80;8.20;;;;;;;;;;4978477;28;20045;-87
2021/12/06 16:54:20;;;;;;;10.98;6.57;;;;;;;;;;4996594;28;20030;-85
2021/12/06 16:56:55;;;;;;;17.00;6.70;;;;;;;;;;5003117;28;20035;-85
2021/12/06 16:59:20;;;;;;;8.90;6.03;;;;;;;;;;4981367;28;20570;-86
2021/12/06 17:01:46;;;;;;;9.73;5.72;;;;;;;;;;4980310;28;20109;-88
2021/12/06 17:04:21;;;;;;;9.73;5.30;;;;;;;;;;4980212;28;20017;-87
2021/12/06 17:06:47;;;;;;;10.07;6.13;;;;;;;;;;4978874;28;20085;-87
2021/12/06 17:09:14;;;;;;;6.60;4.53;;;;;;;;;;4977514;28;20022;-86
2021/12/06 17:11:46;;;;;;;9.80;3.60;;;;;;;;;;4974593;28;20026;-90
2021/12/06 17:14:15;;;;;;;2.97;2.72;;;;;;;;;;4976937;28;20023;-87
2021/12/06 17:16:50;;;;;;;2.67;2.20;;;;;;;;;;4977923;28;20494;-87
2021/12/06 17:19:18;;;;;;;3.28;2.08;;;;;;;;;;4979587;28;20026;-85
2021/12/06 17:21:47;;;;;;;6.95;3.58;;;;;;;;;;4977713;28;20033;-87
2021/12/06 17:24:47;;;;;;;6.30;3.08;;;;;;;;;;4980062;28;20023;-87
2021/12/06 17:27:28;;;;;;;5.78;3.15;;;;;;;;;;4980216;28;20031;-87
2021/12/06 17:29:55;;;;;;;9.90;4.70;;;;;;;;;;4985572;28;20049;-86
2021/12/06 17:32:20;;;;;;;4.78;2.90;;;;;;;;;;4987999;28;20026;-86
2021/12/06 17:34:46;;;;;;;5.10;3.00;;;;;;;;;;4996316;28;20026;-86
2021/12/06 17:37:12;;;;;;;6.85;3.03;;;;;;;;;;4979463;28;20057;-86
2021/12/06 17:39:43;;;;;;;5.55;3.25;;;;;;;;;;4984750;28;20030;-86
2021/12/06 17:42:11;;;;;;;10.13;5.38;;;;;;;;;;4981316;28;20042;-85
2021/12/06 17:44:37;;;;;;;15.90;7.25;;;;;;;;;;4985785;28;20027;-87
2021/12/06 17:47:02;;;;;;;16.70;7.45;;;;;;;;;;4988639;28;20092;-84
2021/12/06 17:49:28;;;;;;;15.07;7.05;;;;;;;;;;4982173;28;20026;-84
2021/12/06 17:51:54;;;;;;;17.23;8.25;;;;;;;;;;4980830;28;20081;-85
2021/12/06 17:54:23;;;;;;;11.80;5.72;;;;;;;;;;4979363;28;20371;-85
2021/12/06 17:56:50;;;;;;;7.35;3.58;;;;;;;;;;4995627;28;20089;-85
2021/12/06 17:59:17;;;;;;;6.10;3.60;;;;;;;;;;4978380;28;20023;-85
2021/12/06 18:01:46;;;;;;;27.45;3.92;;;;;;;;;;4992215;28;20398;-83
2021/12/06 18:04:19;;;;;;;6.70;3.72;;;;;;;;;;4981301;28;20026;-85
2021/12/06 18:06:45;;;;;;;4.15;2.60;;;;;;;;;;5002837;28;20032;-84
2021/12/06 18:09:12;;;;;;;7.05;4.10;;;;;;;;;;4976100;28;20069;-85
2021/12/06 18:11:40;;;;;;;10.75;5.10;;;;;;;;;;4978905;28;20046;-85
2021/12/06 18:14:09;;;;;;;10.48;6.07;;;;;;;;;;4979813;28;20077;-86
2021/12/06 18:16:34;;;;;;;13.98;6.80;;;;;;;;;;4977062;28;20050;-85
2021/12/06 18:19:00;;;;;;;10.38;4.95;;;;;;;;;;4979702;28;20023;-85
2021/12/06 18:21:25;;;;;;;16.90;7.70;;;;;;;;;;4987561;28;20031;-83
2021/12/06 18:23:51;;;;;;;13.73;6.03;;;;;;;;;;4999463;28;20026;-84
2021/12/06 18:26:16;;;;;;;12.25;5.28;;;;;;;;;;4999472;28;20027;-85
2021/12/06 18:28:42;;;;;;;15.25;6.53;;;;;;;;;;5000365;28;20026;-84
2021/12/06 18:31:09;;;;;;;12.25;6.15;;;;;;;;;;4988572;28;20058;-85
2021/12/06 18:33:40;;;;;;;15.07;5.45;;;;;;;;;;4977425;28;20033;-85
2021/12/06 18:36:06;;;;;;;41.70;17.67;;;;;;;;;;4990770;28;20023;-84